sensor_id;sensor_type;location;lat;lon;timestamp;pressure;altitude;pressure_sealevel;temperature;humidity
64158;BME280;50449;51.528;5.076;2023-11-21T00:01:14;100989.34;;;11.63;66.13
64158;BME280;50449;51.528;5.076;2023-11-21T00:03:40;100989.34;;;11.63;66.02
64158;BME280;50449;51.528;5.076;2023-11-21T00:06:05;100986.88;;;11.61;66.24
64158;BME280;50449;51.528;5.076;2023-11-21T00:08:34;100989.59;;;11.61;66.20
64158;BME280;50449;51.528;5.076;2023-11-21T00:11:00;100990.66;;;11.60;66.24
64158;BME280;50449;51.528;5.076;2023-11-21T00:13:25;100998.78;;;11.60;66.09
64158;BME280;50449;51.528;5.076;2023-11-21T00:15:51;100994.44;;;11.59;66.26
64158;BME280;50449;51.528;5.076;2023-11-21T00:18:16;100991.16;;;11.57;66.07
64158;BME280;50449;51.528;5.076;2023-11-21T00:20:41;100991.97;;;11.58;66.23
64158;BME280;50449;51.528;5.076;2023-11-21T00:23:07;100993.03;;;11.57;66.23
64158;BME280;50449;51.528;5.076;2023-11-21T00:25:32;100990.56;;;11.55;66.13
64158;BME280;50449;51.528;5.076;2023-11-21T00:27:57;100995.97;;;11.55;65.94
64158;BME280;50449;51.528;5.076;2023-11-21T00:30:22;100995.97;;;11.55;66.13
64158;BME280;50449;51.528;5.076;2023-11-21T00:32:48;100990.56;;;11.55;66.15
64158;BME280;50449;51.528;5.076;2023-11-21T00:35:13;100997.06;;;11.54;66.15
64158;BME280;50449;51.528;5.076;2023-11-21T00:37:38;100996.22;;;11.54;66.11
64158;BME280;50449;51.528;5.076;2023-11-21T00:40:04;101000.81;;;11.53;66.11
64158;BME280;50449;51.528;5.076;2023-11-21T00:42:30;100994.81;;;11.51;66.25
64158;BME280;50449;51.528;5.076;2023-11-21T00:44:57;101000.22;;;11.51;66.10
64158;BME280;50449;51.528;5.076;2023-11-21T00:47:22;100999.66;;;11.49;66.20
64158;BME280;50449;51.528;5.076;2023-11-21T00:49:47;100998.00;;;11.48;66.18
64158;BME280;50449;51.528;5.076;2023-11-21T00:52:14;100995.31;;;11.48;66.27
64158;BME280;50449;51.528;5.076;2023-11-21T00:54:39;101008.81;;;11.48;66.22
64158;BME280;50449;51.528;5.076;2023-11-21T00:57:04;101004.72;;;11.45;66.28
64158;BME280;50449;51.528;5.076;2023-11-21T00:59:30;101002.00;;;11.45;66.10
64158;BME280;50449;51.528;5.076;2023-11-21T01:01:55;101018.47;;;11.44;65.98
64158;BME280;50449;51.528;5.076;2023-11-21T01:04:21;101014.94;;;11.43;65.94
64158;BME280;50449;51.528;5.076;2023-11-21T01:06:46;101021.44;;;11.42;65.95
64158;BME280;50449;51.528;5.076;2023-11-21T01:09:12;101017.91;;;11.42;65.99
64158;BME280;50449;51.528;5.076;2023-11-21T01:11:39;101030.59;;;11.41;66.01
64158;BME280;50449;51.528;5.076;2023-11-21T01:14:04;101027.88;;;11.41;66.02
64158;BME280;50449;51.528;5.076;2023-11-21T01:16:30;101032.50;;;11.41;66.04
64158;BME280;50449;51.528;5.076;2023-11-21T01:18:57;101025.69;;;11.38;66.00
64158;BME280;50449;51.528;5.076;2023-11-21T01:21:22;101032.16;;;11.37;65.88
64158;BME280;50449;51.528;5.076;2023-11-21T01:23:48;101039.47;;;11.37;66.05
64158;BME280;50449;51.528;5.076;2023-11-21T01:26:13;101036.97;;;11.35;66.01
64158;BME280;50449;51.528;5.076;2023-11-21T01:28:38;101031.81;;;11.34;65.92
64158;BME280;50449;51.528;5.076;2023-11-21T01:31:04;101048.03;;;11.34;66.08
64158;BME280;50449;51.528;5.076;2023-11-21T01:33:29;101041.00;;;11.33;66.11
64158;BME280;50449;51.528;5.076;2023-11-21T01:35:54;101043.94;;;11.31;66.12
64158;BME280;50449;51.528;5.076;2023-11-21T01:38:20;101043.94;;;11.31;66.20
64158;BME280;50449;51.528;5.076;2023-11-21T01:40:46;101045.81;;;11.31;65.98
64158;BME280;50449;51.528;5.076;2023-11-21T01:43:11;101049.59;;;11.30;65.93
64158;BME280;50449;51.528;5.076;2023-11-21T01:45:36;101044.41;;;11.28;66.07
64158;BME280;50449;51.528;5.076;2023-11-21T01:48:02;101056.31;;;11.27;65.93
64158;BME280;50449;51.528;5.076;2023-11-21T01:50:28;101058.19;;;11.26;66.08
64158;BME280;50449;51.528;5.076;2023-11-21T01:52:53;101070.06;;;11.25;66.01
64158;BME280;50449;51.528;5.076;2023-11-21T01:55:19;101066.75;;;11.23;66.04
64158;BME280;50449;51.528;5.076;2023-11-21T01:57:45;101069.47;;;11.23;66.17
64158;BME280;50449;51.528;5.076;2023-11-21T02:00:11;101074.06;;;11.23;65.82
64158;BME280;50449;51.528;5.076;2023-11-21T02:02:44;101068.06;;;11.21;66.05
64158;BME280;50449;51.528;5.076;2023-11-21T02:05:16;101075.34;;;11.20;66.12
64158;BME280;50449;51.528;5.076;2023-11-21T02:07:45;101072.91;;;11.19;66.00
64158;BME280;50449;51.528;5.076;2023-11-21T02:10:13;101084.75;;;11.18;65.96
64158;BME280;50449;51.528;5.076;2023-11-21T02:12:40;101080.44;;;11.17;66.07
64158;BME280;50449;51.528;5.076;2023-11-21T02:15:07;101083.94;;;11.17;66.00
64158;BME280;50449;51.528;5.076;2023-11-21T02:17:40;101085.84;;;11.17;66.10
64158;BME280;50449;51.528;5.076;2023-11-21T02:20:05;101082.31;;;11.16;66.06
64158;BME280;50449;51.528;5.076;2023-11-21T02:22:31;101083.34;;;11.15;66.06
64158;BME280;50449;51.528;5.076;2023-11-21T02:25:00;101089.59;;;11.16;65.88
64158;BME280;50449;51.528;5.076;2023-11-21T02:27:26;101089.03;;;11.14;65.82
64158;BME280;50449;51.528;5.076;2023-11-21T02:29:52;101096.28;;;11.13;66.04
64158;BME280;50449;51.528;5.076;2023-11-21T02:32:17;101098.16;;;11.13;66.03
64158;BME280;50449;51.528;5.076;2023-11-21T02:34:44;101097.34;;;11.12;66.03
64158;BME280;50449;51.528;5.076;2023-11-21T02:37:09;101100.28;;;11.11;65.82
64158;BME280;50449;51.528;5.076;2023-11-21T02:39:35;101095.69;;;11.11;65.93
64158;BME280;50449;51.528;5.076;2023-11-21T02:42:00;101090.53;;;11.10;66.10
64158;BME280;50449;51.528;5.076;2023-11-21T02:44:25;101092.44;;;11.09;66.03
64158;BME280;50449;51.528;5.076;2023-11-21T02:46:51;101090.78;;;11.08;65.96
64158;BME280;50449;51.528;5.076;2023-11-21T02:49:16;101097.84;;;11.09;66.00
64158;BME280;50449;51.528;5.076;2023-11-21T02:51:41;101098.06;;;11.08;65.86
64158;BME280;50449;51.528;5.076;2023-11-21T02:54:07;101084.78;;;11.06;65.98
64158;BME280;50449;51.528;5.076;2023-11-21T02:56:33;101087.47;;;11.06;66.03
64158;BME280;50449;51.528;5.076;2023-11-21T02:58:59;101088.56;;;11.05;65.94
64158;BME280;50449;51.528;5.076;2023-11-21T03:01:25;101095.03;;;11.04;65.91
64158;BME280;50449;51.528;5.076;2023-11-21T03:03:50;101090.44;;;11.04;65.87
64158;BME280;50449;51.528;5.076;2023-11-21T03:06:20;101086.91;;;11.04;65.81
64158;BME280;50449;51.528;5.076;2023-11-21T03:08:45;101089.84;;;11.02;65.85
64158;BME280;50449;51.528;5.076;2023-11-21T03:11:11;101083.63;;;11.02;66.07
64158;BME280;50449;51.528;5.076;2023-11-21T03:13:37;101105.47;;;11.00;66.08
64158;BME280;50449;51.528;5.076;2023-11-21T03:16:03;101100.06;;;11.00;66.01
64158;BME280;50449;51.528;5.076;2023-11-21T03:18:28;101107.38;;;11.00;66.04
64158;BME280;50449;51.528;5.076;2023-11-21T03:20:54;101106.78;;;10.98;65.90
64158;BME280;50449;51.528;5.076;2023-11-21T03:23:19;101112.19;;;10.98;65.90
64158;BME280;50449;51.528;5.076;2023-11-21T03:25:45;101114.06;;;10.97;65.80
64158;BME280;50449;51.528;5.076;2023-11-21T03:28:10;101111.34;;;10.97;66.00
64158;BME280;50449;51.528;5.076;2023-11-21T03:30:35;101110.53;;;10.97;65.96
64158;BME280;50449;51.528;5.076;2023-11-21T03:33:00;101112.66;;;10.95;65.79
64158;BME280;50449;51.528;5.076;2023-11-21T03:35:26;101109.94;;;10.95;66.01
64158;BME280;50449;51.528;5.076;2023-11-21T03:37:51;101104.78;;;10.93;65.94
64158;BME280;50449;51.528;5.076;2023-11-21T03:40:16;101116.44;;;10.94;65.94
64158;BME280;50449;51.528;5.076;2023-11-21T03:42:42;101118.28;;;10.93;65.94
64158;BME280;50449;51.528;5.076;2023-11-21T03:45:07;101122.06;;;10.92;65.86
64158;BME280;50449;51.528;5.076;2023-11-21T03:47:33;101123.13;;;10.91;65.96
64158;BME280;50449;51.528;5.076;2023-11-21T03:49:59;101122.28;;;10.91;66.11
64158;BME280;50449;51.528;5.076;2023-11-21T03:52:24;101124.97;;;10.91;66.06
64158;BME280;50449;51.528;5.076;2023-11-21T03:54:50;101121.47;;;10.90;65.98
64158;BME280;50449;51.528;5.076;2023-11-21T03:57:15;101120.88;;;10.88;65.89
64158;BME280;50449;51.528;5.076;2023-11-21T03:59:40;101121.72;;;10.89;65.84
64158;BME280;50449;51.528;5.076;2023-11-21T04:02:06;101129.81;;;10.89;65.92
64158;BME280;50449;51.528;5.076;2023-11-21T04:04:32;101125.47;;;10.88;66.04
64158;BME280;50449;51.528;5.076;2023-11-21T04:06:58;101125.47;;;10.88;66.01
64158;BME280;50449;51.528;5.076;2023-11-21T04:09:23;101128.41;;;10.86;66.01
64158;BME280;50449;51.528;5.076;2023-11-21T04:11:50;101137.34;;;10.87;66.02
64158;BME280;50449;51.528;5.076;2023-11-21T04:14:15;101138.38;;;10.86;65.89
64158;BME280;50449;51.528;5.076;2023-11-21T04:16:42;101141.09;;;10.86;66.01
64158;BME280;50449;51.528;5.076;2023-11-21T04:19:07;101151.88;;;10.86;66.03
64158;BME280;50449;51.528;5.076;2023-11-21T04:21:35;101161.88;;;10.85;65.90
64158;BME280;50449;51.528;5.076;2023-11-21T04:24:00;101167.28;;;10.85;65.89
64158;BME280;50449;51.528;5.076;2023-11-21T04:26:25;101171.88;;;10.85;65.92
64158;BME280;50449;51.528;5.076;2023-11-21T04:28:51;101178.09;;;10.85;65.93
64158;BME280;50449;51.528;5.076;2023-11-21T04:31:16;101178.34;;;10.83;66.05
64158;BME280;50449;51.528;5.076;2023-11-21T04:33:41;101183.75;;;10.83;65.94
64158;BME280;50449;51.528;5.076;2023-11-21T04:36:06;101185.63;;;10.83;66.05
64158;BME280;50449;51.528;5.076;2023-11-21T04:38:32;101188.56;;;10.81;65.97
64158;BME280;50449;51.528;5.076;2023-11-21T04:40:58;101185.03;;;10.81;65.88
64158;BME280;50449;51.528;5.076;2023-11-21T04:43:23;101188.56;;;10.81;65.91
64158;BME280;50449;51.528;5.076;2023-11-21T04:45:48;101186.09;;;10.80;66.16
64158;BME280;50449;51.528;5.076;2023-11-21T04:48:14;101192.31;;;10.80;66.08
64158;BME280;50449;51.528;5.076;2023-11-21T04:50:39;101193.38;;;10.79;66.21
64158;BME280;50449;51.528;5.076;2023-11-21T04:53:04;101200.66;;;10.79;66.21
64158;BME280;50449;51.528;5.076;2023-11-21T04:55:30;101202.50;;;10.78;66.07
64158;BME280;50449;51.528;5.076;2023-11-21T04:57:55;101207.09;;;10.78;66.10
64158;BME280;50449;51.528;5.076;2023-11-21T05:00:21;101200.06;;;10.77;65.97
64158;BME280;50449;51.528;5.076;2023-11-21T05:02:46;101198.19;;;10.77;66.05
64158;BME280;50449;51.528;5.076;2023-11-21T05:05:11;101202.78;;;10.77;66.03
64158;BME280;50449;51.528;5.076;2023-11-21T05:07:37;101198.19;;;10.77;65.89
64158;BME280;50449;51.528;5.076;2023-11-21T05:10:03;101197.38;;;10.77;65.88
64158;BME280;50449;51.528;5.076;2023-11-21T05:12:31;101199.25;;;10.76;66.09
64158;BME280;50449;51.528;5.076;2023-11-21T05:15:05;101198.19;;;10.77;66.01
64158;BME280;50449;51.528;5.076;2023-11-21T05:17:37;101209.22;;;10.76;66.03
64158;BME280;50449;51.528;5.076;2023-11-21T05:20:06;101212.97;;;10.75;65.92
64158;BME280;50449;51.528;5.076;2023-11-21T05:22:34;101211.91;;;10.76;66.01
64158;BME280;50449;51.528;5.076;2023-11-21T05:24:59;101221.09;;;10.75;65.91
64158;BME280;50449;51.528;5.076;2023-11-21T05:27:25;101221.91;;;10.75;66.19
64158;BME280;50449;51.528;5.076;2023-11-21T05:29:50;101222.97;;;10.74;66.13
64158;BME280;50449;51.528;5.076;2023-11-21T05:32:15;101223.78;;;10.75;65.87
64158;BME280;50449;51.528;5.076;2023-11-21T05:34:42;101226.50;;;10.75;65.98
64158;BME280;50449;51.528;5.076;2023-11-21T05:37:08;101234.59;;;10.75;66.25
64158;BME280;50449;51.528;5.076;2023-11-21T05:39:33;101232.97;;;10.74;66.14
64158;BME280;50449;51.528;5.076;2023-11-21T05:41:58;101233.78;;;10.74;66.00
64158;BME280;50449;51.528;5.076;2023-11-21T05:44:25;101242.94;;;10.73;66.12
64158;BME280;50449;51.528;5.076;2023-11-21T05:46:50;101247.50;;;10.73;65.97
64158;BME280;50449;51.528;5.076;2023-11-21T05:49:15;101252.69;;;10.74;66.05
64158;BME280;50449;51.528;5.076;2023-11-21T05:51:41;101251.88;;;10.74;66.16
64158;BME280;50449;51.528;5.076;2023-11-21T05:54:06;101251.03;;;10.73;66.07
64158;BME280;50449;51.528;5.076;2023-11-21T05:56:33;101259.13;;;10.73;66.07
64158;BME280;50449;51.528;5.076;2023-11-21T05:58:58;101261.03;;;10.73;66.15
64158;BME280;50449;51.528;5.076;2023-11-21T06:01:23;101264.53;;;10.73;66.18
64158;BME280;50449;51.528;5.076;2023-11-21T06:03:48;101269.94;;;10.73;66.20
64158;BME280;50449;51.528;5.076;2023-11-21T06:06:14;101267.50;;;10.72;66.00
64158;BME280;50449;51.528;5.076;2023-11-21T06:08:39;101264.78;;;10.72;66.07
64158;BME280;50449;51.528;5.076;2023-11-21T06:11:04;101271.00;;;10.72;66.24
64158;BME280;50449;51.528;5.076;2023-11-21T06:13:29;101278.31;;;10.72;66.21
64158;BME280;50449;51.528;5.076;2023-11-21T06:15:55;101279.13;;;10.72;66.17
64158;BME280;50449;51.528;5.076;2023-11-21T06:18:20;101281.81;;;10.72;66.04
64158;BME280;50449;51.528;5.076;2023-11-21T06:20:46;101296.41;;;10.71;66.06
64158;BME280;50449;51.528;5.076;2023-11-21T06:23:11;101282.63;;;10.73;66.25
64158;BME280;50449;51.528;5.076;2023-11-21T06:25:37;101289.94;;;10.72;66.25
64158;BME280;50449;51.528;5.076;2023-11-21T06:28:02;101289.94;;;10.72;66.10
64158;BME280;50449;51.528;5.076;2023-11-21T06:30:27;101286.16;;;10.73;66.24
64158;BME280;50449;51.528;5.076;2023-11-21T06:32:54;101286.41;;;10.72;66.09
64158;BME280;50449;51.528;5.076;2023-11-21T06:35:20;101302.63;;;10.72;66.22
64158;BME280;50449;51.528;5.076;2023-11-21T06:37:45;101306.13;;;10.72;66.32
64158;BME280;50449;51.528;5.076;2023-11-21T06:40:12;101308.03;;;10.72;66.21
64158;BME280;50449;51.528;5.076;2023-11-21T06:42:38;101311.53;;;10.72;66.29
64158;BME280;50449;51.528;5.076;2023-11-21T06:45:04;101308.03;;;10.72;66.08
64158;BME280;50449;51.528;5.076;2023-11-21T06:47:29;101308.84;;;10.72;66.30
64158;BME280;50449;51.528;5.076;2023-11-21T06:49:55;101308.84;;;10.72;66.13
64158;BME280;50449;51.528;5.076;2023-11-21T06:52:21;101314.25;;;10.72;66.26
64158;BME280;50449;51.528;5.076;2023-11-21T06:54:47;101308.84;;;10.72;66.08
64158;BME280;50449;51.528;5.076;2023-11-21T06:57:12;101325.88;;;10.73;66.18
64158;BME280;50449;51.528;5.076;2023-11-21T06:59:38;101324.00;;;10.73;66.16
64158;BME280;50449;51.528;5.076;2023-11-21T07:02:03;101323.41;;;10.71;66.11
64158;BME280;50449;51.528;5.076;2023-11-21T07:04:31;101324.00;;;10.73;66.12
64158;BME280;50449;51.528;5.076;2023-11-21T07:06:57;101330.25;;;10.74;66.13
64158;BME280;50449;51.528;5.076;2023-11-21T07:09:22;101329.38;;;10.73;66.20
64158;BME280;50449;51.528;5.076;2023-11-21T07:11:48;101339.38;;;10.73;66.24
64158;BME280;50449;51.528;5.076;2023-11-21T07:14:13;101341.25;;;10.72;66.26
64158;BME280;50449;51.528;5.076;2023-11-21T07:16:38;101340.44;;;10.72;66.06
64158;BME280;50449;51.528;5.076;2023-11-21T07:19:04;101343.97;;;10.72;66.21
64158;BME280;50449;51.528;5.076;2023-11-21T07:21:32;101348.31;;;10.73;65.96
64158;BME280;50449;51.528;5.076;2023-11-21T07:23:59;101356.66;;;10.72;66.27
64158;BME280;50449;51.528;5.076;2023-11-21T07:26:24;101357.47;;;10.72;66.20
64158;BME280;50449;51.528;5.076;2023-11-21T07:28:51;101346.88;;;10.71;66.09
64158;BME280;50449;51.528;5.076;2023-11-21T07:31:16;101343.16;;;10.72;66.16
64158;BME280;50449;51.528;5.076;2023-11-21T07:33:41;101364.97;;;10.70;66.13
64158;BME280;50449;51.528;5.076;2023-11-21T07:36:07;101359.56;;;10.70;66.05
64158;BME280;50449;51.528;5.076;2023-11-21T07:38:32;101368.50;;;10.71;66.17
64158;BME280;50449;51.528;5.076;2023-11-21T07:40:58;101375.78;;;10.70;66.21
64158;BME280;50449;51.528;5.076;2023-11-21T07:43:26;101376.59;;;10.71;66.24
64158;BME280;50449;51.528;5.076;2023-11-21T07:45:51;101379.31;;;10.71;66.29
64158;BME280;50449;51.528;5.076;2023-11-21T07:48:17;101387.41;;;10.71;66.22
64158;BME280;50449;51.528;5.076;2023-11-21T07:50:42;101391.78;;;10.72;66.29
64158;BME280;50449;51.528;5.076;2023-11-21T07:53:07;101389.09;;;10.72;65.98
64158;BME280;50449;51.528;5.076;2023-11-21T07:55:32;101390.72;;;10.73;65.91
64158;BME280;50449;51.528;5.076;2023-11-21T07:57:58;101396.13;;;10.73;66.01
64158;BME280;50449;51.528;5.076;2023-11-21T08:00:24;101396.38;;;10.71;66.18
64158;BME280;50449;51.528;5.076;2023-11-21T08:02:49;101397.19;;;10.72;66.26
64158;BME280;50449;51.528;5.076;2023-11-21T08:05:14;101411.53;;;10.72;66.18
64158;BME280;50449;51.528;5.076;2023-11-21T08:07:40;101402.59;;;10.72;66.27
64158;BME280;50449;51.528;5.076;2023-11-21T08:10:05;101409.63;;;10.73;66.33
64158;BME280;50449;51.528;5.076;2023-11-21T08:12:31;101413.41;;;10.72;66.33
64158;BME280;50449;51.528;5.076;2023-11-21T08:14:57;101416.91;;;10.72;66.31
64158;BME280;50449;51.528;5.076;2023-11-21T08:17:22;101423.16;;;10.73;66.17
64158;BME280;50449;51.528;5.076;2023-11-21T08:19:48;101423.16;;;10.73;66.36
64158;BME280;50449;51.528;5.076;2023-11-21T08:22:17;101420.22;;;10.74;66.15
64158;BME280;50449;51.528;5.076;2023-11-21T08:24:43;101428.53;;;10.73;66.33
64158;BME280;50449;51.528;5.076;2023-11-21T08:27:08;101430.22;;;10.74;66.21
64158;BME280;50449;51.528;5.076;2023-11-21T08:29:34;101437.47;;;10.73;66.20
64158;BME280;50449;51.528;5.076;2023-11-21T08:32:01;101441.84;;;10.74;66.16
64158;BME280;50449;51.528;5.076;2023-11-21T08:34:27;101444.56;;;10.74;66.47
64158;BME280;50449;51.528;5.076;2023-11-21T08:36:53;101442.88;;;10.73;66.29
64158;BME280;50449;51.528;5.076;2023-11-21T08:39:18;101444.56;;;10.74;66.51
64158;BME280;50449;51.528;5.076;2023-11-21T08:41:44;101453.47;;;10.75;66.53
64158;BME280;50449;51.528;5.076;2023-11-21T08:44:09;101456.19;;;10.75;66.43
64158;BME280;50449;51.528;5.076;2023-11-21T08:46:34;101455.13;;;10.76;66.44
64158;BME280;50449;51.528;5.076;2023-11-21T08:49:01;101460.31;;;10.77;66.54
64158;BME280;50449;51.528;5.076;2023-11-21T08:51:27;101457.81;;;10.76;66.44
64158;BME280;50449;51.528;5.076;2023-11-21T08:53:52;101457.81;;;10.76;66.48
64158;BME280;50449;51.528;5.076;2023-11-21T08:56:18;101458.66;;;10.76;66.57
64158;BME280;50449;51.528;5.076;2023-11-21T08:58:45;101460.31;;;10.77;66.74
64158;BME280;50449;51.528;5.076;2023-11-21T09:01:11;101468.41;;;10.77;66.63
64158;BME280;50449;51.528;5.076;2023-11-21T09:03:37;101479.00;;;10.79;66.58
64158;BME280;50449;51.528;5.076;2023-11-21T09:06:02;101472.53;;;10.80;66.47
64158;BME280;50449;51.528;5.076;2023-11-21T09:08:28;101467.94;;;10.80;66.62
64158;BME280;50449;51.528;5.076;2023-11-21T09:10:54;101473.13;;;10.82;66.62
64158;BME280;50449;51.528;5.076;2023-11-21T09:13:19;101475.84;;;10.82;66.83
64158;BME280;50449;51.528;5.076;2023-11-21T09:15:45;101481.03;;;10.83;66.90
64158;BME280;50449;51.528;5.076;2023-11-21T09:18:14;101481.84;;;10.84;66.76
64158;BME280;50449;51.528;5.076;2023-11-21T09:20:40;101484.56;;;10.84;66.75
64158;BME280;50449;51.528;5.076;2023-11-21T09:23:05;101487.88;;;10.86;66.79
64158;BME280;50449;51.528;5.076;2023-11-21T09:25:32;101489.72;;;10.86;66.89
64158;BME280;50449;51.528;5.076;2023-11-21T09:27:57;101493.84;;;10.88;67.07
64158;BME280;50449;51.528;5.076;2023-11-21T09:30:23;101502.81;;;10.89;67.14
64158;BME280;50449;51.528;5.076;2023-11-21T09:32:49;101497.16;;;10.90;67.09
64158;BME280;50449;51.528;5.076;2023-11-21T09:35:15;101502.34;;;10.92;67.26
64158;BME280;50449;51.528;5.076;2023-11-21T09:37:41;101508.34;;;10.94;67.24
64158;BME280;50449;51.528;5.076;2023-11-21T09:40:07;101505.41;;;10.95;67.38
64158;BME280;50449;51.528;5.076;2023-11-21T09:42:43;101516.00;;;10.97;67.05
64158;BME280;50449;51.528;5.076;2023-11-21T09:47:48;101517.78;;;11.03;67.45
64158;BME280;50449;51.528;5.076;2023-11-21T09:50:17;101518.41;;;11.05;67.47
64158;BME280;50449;51.528;5.076;2023-11-21T09:52:54;101523.59;;;11.07;67.46
64158;BME280;50449;51.528;5.076;2023-11-21T09:55:20;101527.09;;;11.07;67.40
64158;BME280;50449;51.528;5.076;2023-11-21T09:57:46;101525.22;;;11.08;67.39
64158;BME280;50449;51.528;5.076;2023-11-21T10:00:13;101525.00;;;11.09;67.54
64158;BME280;50449;51.528;5.076;2023-11-21T10:02:42;101533.69;;;11.11;67.53
64158;BME280;50449;51.528;5.076;2023-11-21T10:05:08;101530.78;;;11.13;67.50
64158;BME280;50449;51.528;5.076;2023-11-21T10:07:36;101537.84;;;11.14;67.80
64158;BME280;50449;51.528;5.076;2023-11-21T10:10:03;101535.97;;;11.14;67.81
64158;BME280;50449;51.528;5.076;2023-11-21T10:12:29;101542.81;;;11.17;67.87
64158;BME280;50449;51.528;5.076;2023-11-21T10:14:57;101544.44;;;11.18;67.89
64158;BME280;50449;51.528;5.076;2023-11-21T10:17:23;101546.94;;;11.19;68.03
64158;BME280;50449;51.528;5.076;2023-11-21T10:19:51;101557.28;;;11.22;68.06
64158;BME280;50449;51.528;5.076;2023-11-21T10:22:18;101562.25;;;11.25;68.01
64158;BME280;50449;51.528;5.076;2023-11-21T10:24:45;101561.19;;;11.26;68.10
64158;BME280;50449;51.528;5.076;2023-11-21T10:27:10;101563.44;;;11.30;68.26
64158;BME280;50449;51.528;5.076;2023-11-21T10:29:35;101564.25;;;11.30;68.35
64158;BME280;50449;51.528;5.076;2023-11-21T10:32:04;101572.16;;;11.32;68.46
64158;BME280;50449;51.528;5.076;2023-11-21T10:34:30;101580.84;;;11.34;68.32
64158;BME280;50449;51.528;5.076;2023-11-21T10:36:55;101588.53;;;11.37;68.44
64158;BME280;50449;51.528;5.076;2023-11-21T10:39:23;101585.38;;;11.40;68.36
64158;BME280;50449;51.528;5.076;2023-11-21T10:41:49;101587.81;;;11.41;68.64
64158;BME280;50449;51.528;5.076;2023-11-21T10:44:14;101586.72;;;11.49;68.56
64158;BME280;50449;51.528;5.076;2023-11-21T10:46:46;101595.56;;;11.56;68.34
64158;BME280;50449;51.528;5.076;2023-11-21T10:49:15;101594.06;;;11.60;68.50
64158;BME280;50449;51.528;5.076;2023-11-21T10:51:43;101595.25;;;11.64;68.28
64158;BME280;50449;51.528;5.076;2023-11-21T10:54:08;101589.38;;;11.67;68.26
64158;BME280;50449;51.528;5.076;2023-11-21T10:56:34;101588.31;;;11.68;68.20
64158;BME280;50449;51.528;5.076;2023-11-21T10:59:05;101578.31;;;11.69;68.39
64158;BME280;50449;51.528;5.076;2023-11-21T11:01:32;101576.19;;;11.71;68.36
64158;BME280;50449;51.528;5.076;2023-11-21T11:03:58;101577.03;;;11.72;68.56
64158;BME280;50449;51.528;5.076;2023-11-21T11:06:24;101584.94;;;11.73;68.38
64158;BME280;50449;51.528;5.076;2023-11-21T11:08:51;101593.66;;;11.75;68.51
64158;BME280;50449;51.528;5.076;2023-11-21T11:11:16;101597.16;;;11.76;68.54
64158;BME280;50449;51.528;5.076;2023-11-21T11:13:43;101597.16;;;11.76;68.55
64158;BME280;50449;51.528;5.076;2023-11-21T11:16:10;101608.81;;;11.76;68.65
64158;BME280;50449;51.528;5.076;2023-11-21T11:18:37;101609.63;;;11.77;68.87
64158;BME280;50449;51.528;5.076;2023-11-21T11:26:24;101615.66;;;11.79;68.88
64158;BME280;50449;51.528;5.076;2023-11-21T11:29:01;101618.16;;;11.80;68.93
64158;BME280;50449;51.528;5.076;2023-11-21T11:32:06;101618.75;;;11.82;69.04
64158;BME280;50449;51.528;5.076;2023-11-21T11:34:26;101629.31;;;11.84;69.03
64158;BME280;50449;51.528;5.076;2023-11-21T11:36:59;101630.19;;;11.84;69.16
64158;BME280;50449;51.528;5.076;2023-11-21T11:41:55;101634.34;;;11.87;69.13
64158;BME280;50449;51.528;5.076;2023-11-21T11:47:05;101631.38;;;11.88;69.44
64158;BME280;50449;51.528;5.076;2023-11-21T11:49:38;101631.16;;;11.90;69.26
64158;BME280;50449;51.528;5.076;2023-11-21T11:54:48;101639.28;;;11.90;69.30
64158;BME280;50449;51.528;5.076;2023-11-21T11:57:14;101646.34;;;11.91;69.12
64158;BME280;50449;51.528;5.076;2023-11-21T12:02:41;101648.84;;;11.93;69.21
64158;BME280;50449;51.528;5.076;2023-11-21T12:05:10;101648.84;;;11.93;69.23
64158;BME280;50449;51.528;5.076;2023-11-21T12:07:54;101655.88;;;11.94;69.20
64158;BME280;50449;51.528;5.076;2023-11-21T12:10:23;101654.25;;;11.93;69.33
64158;BME280;50449;51.528;5.076;2023-11-21T12:12:56;101657.56;;;11.95;69.50
64158;BME280;50449;51.528;5.076;2023-11-21T12:15:23;101669.81;;;11.97;69.55
64158;BME280;50449;51.528;5.076;2023-11-21T12:17:49;101666.03;;;11.98;69.49
64158;BME280;50449;51.528;5.076;2023-11-21T12:20:15;101664.16;;;11.99;69.61
64158;BME280;50449;51.528;5.076;2023-11-21T12:22:42;101667.66;;;11.99;69.53
64158;BME280;50449;51.528;5.076;2023-11-21T12:25:08;101663.31;;;11.98;69.48
64158;BME280;50449;51.528;5.076;2023-11-21T12:27:33;101670.63;;;11.98;69.41
64158;BME280;50449;51.528;5.076;2023-11-21T12:29:58;101674.97;;;11.99;69.51
64158;BME280;50449;51.528;5.076;2023-11-21T12:32:24;101676.88;;;11.98;69.50
64158;BME280;50449;51.528;5.076;2023-11-21T12:34:50;101680.38;;;11.99;69.49
64158;BME280;50449;51.528;5.076;2023-11-21T12:37:16;101678.50;;;11.99;69.54
64158;BME280;50449;51.528;5.076;2023-11-21T12:39:42;101689.13;;;12.01;69.39
64158;BME280;50449;51.528;5.076;2023-11-21T12:42:07;101681.00;;;12.01;69.30
64158;BME280;50449;51.528;5.076;2023-11-21T12:44:32;101682.63;;;12.02;69.47
64158;BME280;50449;51.528;5.076;2023-11-21T12:46:58;101692.44;;;12.03;69.37
64158;BME280;50449;51.528;5.076;2023-11-21T12:49:24;101690.53;;;12.03;69.57
64158;BME280;50449;51.528;5.076;2023-11-21T12:51:49;101690.31;;;12.05;69.34
64158;BME280;50449;51.528;5.076;2023-11-21T12:54:15;101701.16;;;12.05;69.26
64158;BME280;50449;51.528;5.076;2023-11-21T12:56:40;101701.97;;;12.05;69.44
64158;BME280;50449;51.528;5.076;2023-11-21T12:59:06;101699.47;;;12.04;69.64
64158;BME280;50449;51.528;5.076;2023-11-21T13:01:31;101695.97;;;12.03;69.38
64158;BME280;50449;51.528;5.076;2023-11-21T13:03:57;101702.66;;;12.01;69.19